createdAt,value
2023-05-15T00:02:17.788Z,100592.69
2023-05-15T00:04:49.529Z,100575.41
2023-05-15T00:07:19.221Z,100586.56
2023-05-15T00:09:48.680Z,100594.28
2023-05-15T00:12:18.014Z,100592.53
2023-05-15T00:14:52.859Z,100589.03
2023-05-15T00:17:22.345Z,100583.78
2023-05-15T00:20:07.208Z,100587.22
2023-05-15T00:22:36.747Z,100590.56
2023-05-15T00:25:06.791Z,100594.88
2023-05-15T00:27:42.756Z,100583.75
2023-05-15T00:30:13.422Z,100587.16
2023-05-15T00:32:43.388Z,100596.66
2023-05-15T00:35:14.892Z,100594.94
2023-05-15T00:37:50.063Z,100595.81
2023-05-15T00:40:22.740Z,100594.06
2023-05-15T00:42:58.291Z,100603.53
2023-05-15T00:45:28.932Z,100600.06
2023-05-15T00:48:00.537Z,100587.06
2023-05-15T00:50:34.746Z,100600.91
2023-05-15T00:53:05.672Z,100603.47
2023-05-15T00:55:40.938Z,100601.78
2023-05-15T00:58:12.208Z,100593.16
2023-05-15T01:00:42.109Z,100600.03
2023-05-15T01:03:11.840Z,100597.41
2023-05-15T01:05:49.626Z,100599.97
2023-05-15T01:08:22.972Z,100594.84
2023-05-15T01:10:54.602Z,100606.91
2023-05-15T01:13:25.212Z,100604.34
2023-05-15T01:15:56.983Z,100601.72
2023-05-15T01:18:31.943Z,100602.56
2023-05-15T01:21:19.639Z,100599.06
2023-05-15T01:24:13.349Z,100599.94
2023-05-15T01:27:19.427Z,100598.19
2023-05-15T01:29:58.142Z,100598.97
2023-05-15T01:32:34.231Z,100606.66
2023-05-15T01:35:16.437Z,100604.78
2023-05-15T01:37:51.361Z,100590.00
2023-05-15T01:40:23.883Z,100604.66
2023-05-15T01:42:57.617Z,100605.63
2023-05-15T01:45:28.857Z,100609.09
2023-05-15T01:47:58.843Z,100602.34
2023-05-15T01:50:36.637Z,100605.06
2023-05-15T01:53:09.828Z,100599.06
2023-05-15T01:55:40.990Z,100612.06
2023-05-15T01:58:18.202Z,100596.63
2023-05-15T02:00:50.742Z,100602.66
2023-05-15T02:03:21.088Z,100609.59
2023-05-15T02:05:51.472Z,100582.81
2023-05-15T02:08:33.570Z,100614.81
2023-05-15T02:11:05.433Z,100617.41
2023-05-15T02:13:37.746Z,100614.00
2023-05-15T02:16:07.880Z,100613.16
2023-05-15T02:18:43.801Z,100620.94
2023-05-15T02:21:32.964Z,100619.28
2023-05-15T02:24:07.779Z,100621.00
2023-05-15T02:26:53.101Z,100623.66
2023-05-15T02:29:33.689Z,100624.50
2023-05-15T02:32:16.503Z,100626.25
2023-05-15T02:34:57.670Z,100621.91
2023-05-15T02:37:33.859Z,100625.41
2023-05-15T02:40:06.852Z,100624.53
2023-05-15T02:42:36.682Z,100626.34
2023-05-15T02:45:09.762Z,100627.22
2023-05-15T02:47:40.117Z,100622.94
2023-05-15T02:50:10.884Z,100631.56
2023-05-15T02:52:40.352Z,100629.00
2023-05-15T02:57:46.901Z,100620.44
2023-05-15T03:00:18.997Z,100623.09
2023-05-15T03:02:48.577Z,100621.38
2023-05-15T03:05:18.052Z,100636.91
2023-05-15T03:07:47.507Z,100639.50
2023-05-15T03:10:17.144Z,100636.09
2023-05-15T03:12:46.564Z,100636.94
2023-05-15T03:15:23.438Z,100643.88
2023-05-15T03:17:53.159Z,100644.81
2023-05-15T03:20:22.686Z,100649.97
2023-05-15T03:22:52.184Z,100641.38
2023-05-15T03:25:21.809Z,100653.47
2023-05-15T03:27:51.955Z,100655.25
2023-05-15T03:30:24.799Z,100661.28
2023-05-15T03:32:54.357Z,100655.31
2023-05-15T03:35:24.582Z,100653.66
2023-05-15T03:37:54.472Z,100654.63
2023-05-15T03:40:28.851Z,100656.41
2023-05-15T03:43:00.932Z,100653.00
2023-05-15T03:45:37.443Z,100657.31
2023-05-15T03:48:12.066Z,100656.41
2023-05-15T03:50:41.546Z,100654.63
2023-05-15T03:53:10.920Z,100638.16
2023-05-15T03:55:45.605Z,100652.72
2023-05-15T03:58:14.852Z,100659.56
2023-05-15T04:00:46.303Z,100650.03
2023-05-15T04:03:16.848Z,100650.84
2023-05-15T04:05:49.642Z,100650.75
2023-05-15T04:08:30.654Z,100643.78
2023-05-15T04:11:00.225Z,100649.78
2023-05-15T04:13:29.600Z,100650.56
2023-05-15T04:16:07.113Z,100655.66
2023-05-15T04:18:36.654Z,100656.41
2023-05-15T04:21:11.487Z,100653.00
2023-05-15T04:23:41.313Z,100658.91
2023-05-15T04:26:11.328Z,100650.88
2023-05-15T04:28:49.399Z,100655.03
2023-05-15T04:31:28.203Z,100657.50
2023-05-15T04:33:58.683Z,100647.75
2023-05-15T04:36:28.161Z,100649.28
2023-05-15T04:38:57.669Z,100628.63
2023-05-15T04:44:08.417Z,100653.00
2023-05-15T04:46:39.700Z,100646.03
2023-05-15T04:49:09.156Z,100652.91
2023-05-15T04:51:38.519Z,100645.91
2023-05-15T04:54:23.986Z,100653.56
2023-05-15T04:56:53.476Z,100656.13
2023-05-15T04:59:22.949Z,100645.78
2023-05-15T05:01:54.457Z,100649.16
2023-05-15T05:04:30.823Z,100655.28
2023-05-15T05:07:00.111Z,100658.06
2023-05-15T05:09:29.546Z,100654.63
2023-05-15T05:12:14.248Z,100658.06
2023-05-15T05:14:44.538Z,100658.97
2023-05-15T05:17:16.044Z,100643.34
2023-05-15T05:19:45.576Z,100656.31
2023-05-15T05:22:15.019Z,100648.50
2023-05-15T05:24:49.525Z,100644.13
2023-05-15T05:27:18.937Z,100633.72
2023-05-15T05:29:48.241Z,100647.72
2023-05-15T05:32:19.773Z,100646.06
2023-05-15T05:34:49.118Z,100643.50
2023-05-15T05:37:18.695Z,100647.06
2023-05-15T05:39:48.257Z,100629.66
2023-05-15T05:42:22.625Z,100622.91
2023-05-15T05:44:52.349Z,100637.63
2023-05-15T05:47:23.694Z,100632.44
2023-05-15T05:49:53.560Z,100642.81
2023-05-15T05:52:22.920Z,100604.63
2023-05-15T05:54:57.318Z,100609.81
2023-05-15T05:57:26.671Z,100622.84
2023-05-15T06:00:01.226Z,100643.63
2023-05-15T06:02:40.339Z,100641.03
2023-05-15T06:07:46.036Z,100609.66
2023-05-15T06:10:20.442Z,100635.69
2023-05-15T06:12:50.170Z,100605.47
2023-05-15T06:15:19.578Z,100629.47
2023-05-15T06:20:31.849Z,100623.19
2023-05-15T06:23:01.133Z,100628.25
2023-05-15T06:25:30.702Z,100633.44
2023-05-15T06:28:00.006Z,100616.84
2023-05-15T06:30:29.833Z,100628.69
2023-05-15T06:33:01.139Z,100616.28
2023-05-15T06:35:30.584Z,100627.91
2023-05-15T06:38:00.176Z,100608.69
2023-05-15T06:40:34.921Z,100612.72
2023-05-15T06:43:04.404Z,100613.38
2023-05-15T06:45:33.850Z,100610.28
2023-05-15T06:48:10.317Z,100618.91
2023-05-15T06:50:39.825Z,100614.13
2023-05-15T06:53:09.129Z,100610.50
2023-05-15T06:55:38.604Z,100609.63
2023-05-15T06:58:14.096Z,100616.25
2023-05-15T07:00:43.509Z,100607.31
2023-05-15T07:03:17.053Z,100613.63
2023-05-15T07:05:47.680Z,100615.41
2023-05-15T07:08:23.573Z,100578.25
2023-05-15T07:10:59.576Z,100607.97
2023-05-15T07:13:29.036Z,100616.13
2023-05-15T07:15:58.330Z,100615.19
2023-05-15T07:18:34.884Z,100624.69
2023-05-15T07:21:04.400Z,100622.22
2023-05-15T07:23:33.733Z,100611.22
2023-05-15T07:26:03.207Z,100593.97
2023-05-15T07:28:32.588Z,100621.84
2023-05-15T07:31:03.099Z,100607.06
2023-05-15T07:33:34.925Z,100604.91
2023-05-15T07:36:04.731Z,100604.16
2023-05-15T07:38:34.558Z,100591.03
2023-05-15T07:41:03.906Z,100564.84
2023-05-15T07:43:33.562Z,100585.72
2023-05-15T07:46:03.148Z,100597.88
2023-05-15T07:48:34.544Z,100593.69
2023-05-15T07:51:04.069Z,100593.66
2023-05-15T07:53:33.527Z,100593.53
2023-05-15T07:56:06.203Z,100586.63
2023-05-15T07:58:37.520Z,100587.31
2023-05-15T08:01:08.114Z,100573.41
2023-05-15T08:03:39.676Z,100561.94
2023-05-15T08:06:14.491Z,100579.34
2023-05-15T08:08:44.056Z,100574.00
2023-05-15T08:11:13.401Z,100578.88
2023-05-15T08:13:43.073Z,100581.03
2023-05-15T08:16:20.388Z,100578.38
2023-05-15T08:18:53.163Z,100575.84
2023-05-15T08:21:22.556Z,100565.47
2023-05-15T08:23:54.149Z,100567.13
2023-05-15T08:28:58.820Z,100559.25
2023-05-15T08:31:28.157Z,100554.38
2023-05-15T08:34:00.689Z,100557.66
2023-05-15T08:36:30.484Z,100563.56
2023-05-15T08:39:00.068Z,100564.28
2023-05-15T08:44:07.959Z,100558.81
2023-05-15T08:49:32.651Z,100540.38
2023-05-15T08:52:07.492Z,100552.34
2023-05-15T08:54:37.284Z,100548.00
2023-05-15T08:57:12.828Z,100552.16
2023-05-15T08:59:42.553Z,100553.75
2023-05-15T09:02:12.279Z,100539.81
2023-05-15T09:04:49.004Z,100536.16
2023-05-15T09:07:18.609Z,100501.34
2023-05-15T09:09:49.254Z,100531.78
2023-05-15T09:12:19.054Z,100530.81
2023-05-15T09:14:49.284Z,100517.44
2023-05-15T09:17:18.789Z,100510.47
2023-05-15T09:19:50.039Z,100507.66
2023-05-15T09:22:23.024Z,100502.28
2023-05-15T09:24:54.977Z,100504.94
2023-05-15T09:27:24.416Z,100504.41
2023-05-15T09:32:31.962Z,100498.72
2023-05-15T09:35:03.790Z,100508.16
2023-05-15T09:37:36.553Z,100497.53
2023-05-15T09:40:11.512Z,100504.53
2023-05-15T09:42:41.580Z,100504.72
2023-05-15T09:45:20.123Z,100486.41
2023-05-15T09:47:54.861Z,100485.78
2023-05-15T09:50:36.705Z,100468.09
2023-05-15T09:55:56.054Z,100484.78
2023-05-15T09:58:25.402Z,100482.09
2023-05-15T10:00:54.789Z,100483.41
2023-05-15T10:03:24.848Z,100482.06
2023-05-15T10:06:04.263Z,100459.47
2023-05-15T10:08:34.570Z,100492.38
2023-05-15T10:11:09.816Z,100467.78
2023-05-15T10:13:39.634Z,100476.63
2023-05-15T10:16:16.186Z,100478.41
2023-05-15T10:18:46.866Z,100469.56
2023-05-15T10:21:18.781Z,100464.25
2023-05-15T10:23:52.453Z,100474.28
2023-05-15T10:26:26.489Z,100479.19
2023-05-15T10:28:57.202Z,100452.84
2023-05-15T10:31:27.503Z,100452.38
2023-05-15T10:33:57.945Z,100467.00
2023-05-15T10:36:34.803Z,100456.78
2023-05-15T10:39:06.112Z,100449.59
2023-05-15T10:41:39.246Z,100464.09
2023-05-15T10:44:09.148Z,100454.31
2023-05-15T10:46:39.162Z,100450.50
2023-05-15T10:49:08.747Z,100448.22
2023-05-15T10:51:40.563Z,100447.56
2023-05-15T10:54:11.847Z,100453.56
2023-05-15T10:56:41.683Z,100439.50
2023-05-15T10:59:13.628Z,100412.31
2023-05-15T11:01:56.424Z,100453.34
2023-05-15T11:04:27.185Z,100439.47
2023-05-15T11:07:18.058Z,100438.44
2023-05-15T11:09:47.677Z,100441.25
2023-05-15T11:12:17.017Z,100432.94
2023-05-15T11:15:22.960Z,100437.44
2023-05-15T11:18:08.343Z,100439.22
2023-05-15T11:20:46.698Z,100438.97
2023-05-15T11:23:17.972Z,100427.38
2023-05-15T11:28:46.851Z,100423.63
2023-05-15T11:31:16.631Z,100433.19
2023-05-15T11:33:46.436Z,100422.78
2023-05-15T11:36:26.196Z,100422.78
2023-05-15T11:39:04.026Z,100420.88
2023-05-15T11:41:34.241Z,100423.69
2023-05-15T11:44:03.884Z,100415.81
2023-05-15T11:46:35.196Z,100420.19
2023-05-15T11:49:10.767Z,100389.41
2023-05-15T11:51:42.971Z,100410.16
2023-05-15T11:54:16.016Z,100393.25
2023-05-15T11:56:46.576Z,100398.28
2023-05-15T11:59:16.811Z,100395.75
2023-05-15T12:01:47.411Z,100390.31
2023-05-15T12:04:17.625Z,100395.19
2023-05-15T12:06:49.291Z,100383.16
2023-05-15T12:09:22.295Z,100399.50
2023-05-15T12:11:53.673Z,100393.31
2023-05-15T12:14:29.649Z,100374.28
2023-05-15T12:17:05.717Z,100389.69
2023-05-15T12:19:36.881Z,100373.16
2023-05-15T12:22:08.114Z,100394.84
2023-05-15T12:24:42.151Z,100383.50
2023-05-15T12:27:18.089Z,100381.84
2023-05-15T12:29:47.948Z,100370.31
2023-05-15T12:32:17.833Z,100370.78
2023-05-15T12:37:22.724Z,100358.09
2023-05-15T12:39:55.917Z,100373.47
2023-05-15T12:42:25.846Z,100364.59
2023-05-15T12:51:27.449Z,100357.53
2023-05-15T12:53:57.925Z,100362.00
2023-05-15T12:56:27.583Z,100358.19
2023-05-15T12:58:58.055Z,100348.41
2023-05-15T13:01:28.476Z,100337.66
2023-05-15T13:03:58.462Z,100341.09
2023-05-15T13:06:42.414Z,100348.84
2023-05-15T13:09:16.895Z,100344.59
2023-05-15T13:11:46.743Z,100341.09
2023-05-15T13:14:19.384Z,100328.66
2023-05-15T13:16:49.090Z,100315.72
2023-05-15T13:19:18.559Z,100333.13
2023-05-15T13:21:50.630Z,100343.50
2023-05-15T13:24:20.094Z,100337.28
2023-05-15T13:26:49.413Z,100334.50
2023-05-15T13:29:18.904Z,100345.03
2023-05-15T13:31:59.433Z,100336.28
2023-05-15T13:34:28.909Z,100312.91
2023-05-15T13:37:00.302Z,100319.63
2023-05-15T13:39:34.905Z,100341.34
2023-05-15T13:42:04.324Z,100325.84
2023-05-15T13:44:35.538Z,100336.97
2023-05-15T13:47:05.211Z,100342.25
2023-05-15T13:49:34.604Z,100338.72
2023-05-15T13:52:09.491Z,100339.59
2023-05-15T13:54:44.097Z,100335.97
2023-05-15T13:57:13.393Z,100336.47
2023-05-15T13:59:42.975Z,100331.88
2023-05-15T14:02:12.512Z,100326.56
2023-05-15T14:04:42.078Z,100337.06
2023-05-15T14:07:13.788Z,100320.69
2023-05-15T14:09:43.533Z,100336.25
2023-05-15T14:12:13.118Z,100330.22
2023-05-15T14:14:42.420Z,100320.94
2023-05-15T14:17:16.760Z,100320.25
2023-05-15T14:19:46.538Z,100326.25
2023-05-15T14:22:18.258Z,100305.53
2023-05-15T14:24:47.742Z,100320.81
2023-05-15T14:27:22.224Z,100320.81
2023-05-15T14:29:51.901Z,100323.31
2023-05-15T14:32:21.310Z,100323.25
2023-05-15T14:34:50.848Z,100318.84
2023-05-15T14:37:22.391Z,100321.25
2023-05-15T14:39:51.528Z,100320.63
2023-05-15T14:42:22.534Z,100316.53
2023-05-15T14:44:51.909Z,100307.44
2023-05-15T14:47:26.744Z,100301.44
2023-05-15T14:49:56.152Z,100293.75
2023-05-15T14:52:27.494Z,100306.16
2023-05-15T14:55:08.610Z,100284.41
2023-05-15T14:57:44.816Z,100296.31
2023-05-15T15:00:15.969Z,100293.75
2023-05-15T15:02:45.819Z,100301.69
2023-05-15T15:05:15.355Z,100290.47
2023-05-15T15:08:04.284Z,100296.97
2023-05-15T15:10:39.706Z,100284.06
2023-05-15T15:13:10.370Z,100296.00
2023-05-15T15:15:51.326Z,100297.66
2023-05-15T15:18:20.958Z,100299.38
2023-05-15T15:20:50.392Z,100290.06
2023-05-15T15:23:24.319Z,100287.56
2023-05-15T15:25:53.741Z,100291.72
2023-05-15T15:28:23.333Z,100284.50
2023-05-15T15:30:52.963Z,100296.03
2023-05-15T15:33:22.542Z,100298.88
2023-05-15T15:35:57.490Z,100275.00
2023-05-15T15:38:28.649Z,100291.00
2023-05-15T15:40:58.285Z,100293.44
2023-05-15T15:43:27.604Z,100264.00
2023-05-15T15:45:57.118Z,100279.94
2023-05-15T15:48:26.697Z,100276.63
2023-05-15T15:50:56.364Z,100288.19
2023-05-15T15:53:28.048Z,100276.63
2023-05-15T15:55:57.710Z,100282.41
2023-05-15T15:58:27.123Z,100276.00
2023-05-15T16:00:56.564Z,100268.59
2023-05-15T16:03:37.238Z,100283.16
2023-05-15T16:06:40.581Z,100210.56
2023-05-15T16:09:12.073Z,100286.53
2023-05-15T16:11:46.722Z,100287.81
2023-05-15T16:14:16.319Z,100282.69
2023-05-15T16:16:45.714Z,100280.09
2023-05-15T16:19:15.514Z,100277.53
2023-05-15T16:21:45.929Z,100289.47
2023-05-15T16:24:22.407Z,100288.41
2023-05-15T16:26:53.180Z,100287.22
2023-05-15T16:29:33.456Z,100285.09
2023-05-15T16:32:03.424Z,100284.22
2023-05-15T16:34:32.898Z,100288.78
2023-05-15T16:37:02.290Z,100282.38
2023-05-15T16:39:38.439Z,100281.19
2023-05-15T16:42:09.470Z,100280.31
2023-05-15T16:44:39.231Z,100279.81
2023-05-15T16:47:14.920Z,100285.06
2023-05-15T16:49:45.347Z,100291.13
2023-05-15T16:52:16.696Z,100297.47
2023-05-15T16:54:48.268Z,100295.03
2023-05-15T16:57:35.544Z,100297.53
2023-05-15T17:00:05.368Z,100304.03
2023-05-15T17:02:41.088Z,100298.53
2023-05-15T17:05:12.437Z,100296.56
2023-05-15T17:07:47.503Z,100298.16
2023-05-15T17:10:24.401Z,100302.47
2023-05-15T17:12:54.360Z,100291.09
2023-05-15T17:15:23.946Z,100298.63
2023-05-15T17:20:43.613Z,100302.34
2023-05-15T17:23:13.000Z,100308.28
2023-05-15T17:25:44.684Z,100305.47
2023-05-15T17:28:14.190Z,100295.47
2023-05-15T17:30:44.400Z,100291.66
2023-05-15T17:33:14.125Z,100290.41
2023-05-15T17:35:46.236Z,100312.19
2023-05-15T17:38:16.223Z,100315.06
2023-05-15T17:40:47.565Z,100313.59
2023-05-15T17:43:17.838Z,100310.38
2023-05-15T17:45:49.380Z,100313.19
2023-05-15T17:48:18.694Z,100320.16
2023-05-15T17:50:48.460Z,100315.88
2023-05-15T17:53:17.930Z,100323.72
2023-05-15T17:55:54.572Z,100325.59
2023-05-15T17:58:24.180Z,100326.03
2023-05-15T18:00:53.798Z,100327.97
2023-05-15T18:03:23.559Z,100330.69
2023-05-15T18:05:53.813Z,100329.84
2023-05-15T18:08:23.249Z,100326.59
2023-05-15T18:10:54.587Z,100333.47
2023-05-15T18:13:29.426Z,100330.84
2023-05-15T18:15:59.046Z,100336.97
2023-05-15T18:18:28.537Z,100327.44
2023-05-15T18:20:58.128Z,100334.59
2023-05-15T18:23:27.657Z,100331.97
2023-05-15T18:25:59.174Z,100337.13
2023-05-15T18:28:28.837Z,100338.78
2023-05-15T18:30:58.114Z,100339.69
2023-05-15T18:33:32.707Z,100345.00
2023-05-15T18:36:02.122Z,100340.00
2023-05-15T18:38:31.689Z,100350.41
2023-05-15T18:41:08.057Z,100358.31
2023-05-15T18:43:37.535Z,100353.22
2023-05-15T18:46:08.297Z,100346.41
2023-05-15T18:48:37.671Z,100355.94
2023-05-15T18:51:07.398Z,100344.00
2023-05-15T18:53:37.381Z,100350.19
2023-05-15T18:56:09.177Z,100341.59
2023-05-15T18:58:38.776Z,100345.19
2023-05-15T19:01:08.223Z,100354.00
2023-05-15T19:03:38.329Z,100349.75
2023-05-15T19:06:22.393Z,100358.38
2023-05-15T19:08:51.868Z,100349.78
2023-05-15T19:11:24.943Z,100361.09
2023-05-15T19:13:54.537Z,100357.78
2023-05-15T19:16:28.994Z,100362.03
2023-05-15T19:18:58.873Z,100359.38
2023-05-15T19:21:29.101Z,100348.91
2023-05-15T19:24:09.432Z,100337.03
2023-05-15T19:26:41.491Z,100331.09
2023-05-15T19:29:13.702Z,100360.38
2023-05-15T19:31:43.593Z,100350.06
2023-05-15T19:34:13.298Z,100353.47
2023-05-15T19:36:42.864Z,100355.22
2023-05-15T19:39:12.252Z,100364.78
2023-05-15T19:41:43.522Z,100363.16
2023-05-15T19:44:12.973Z,100359.84
2023-05-15T19:46:42.255Z,100362.75
2023-05-15T19:49:13.171Z,100366.34
2023-05-15T19:51:42.891Z,100358.72
2023-05-15T19:54:12.646Z,100355.38
2023-05-15T19:56:49.207Z,100366.66
2023-05-15T19:59:18.591Z,100347.75
2023-05-15T20:01:48.664Z,100342.59
2023-05-15T20:04:28.306Z,100355.38
2023-05-15T20:06:58.634Z,100355.44
2023-05-15T20:09:28.313Z,100359.78
2023-05-15T20:11:59.673Z,100369.38
2023-05-15T20:14:29.424Z,100326.50
2023-05-15T20:16:58.758Z,100367.78
2023-05-15T20:19:33.112Z,100372.13
2023-05-15T20:22:02.692Z,100372.97
2023-05-15T20:24:37.629Z,100368.63
2023-05-15T20:27:10.889Z,100367.56
2023-05-15T20:29:51.660Z,100374.00
2023-05-15T20:32:21.160Z,100371.78
2023-05-15T20:34:51.773Z,100362.78
2023-05-15T20:37:24.890Z,100364.25
2023-05-15T20:39:54.348Z,100355.25
2023-05-15T20:42:26.490Z,100354.22
2023-05-15T20:44:56.219Z,100361.13
2023-05-15T20:47:26.722Z,100355.88
2023-05-15T20:49:56.176Z,100361.03
2023-05-15T20:52:25.774Z,100352.38
2023-05-15T20:54:55.251Z,100362.69
2023-05-15T20:57:26.580Z,100363.53
2023-05-15T20:59:56.244Z,100365.97
2023-05-15T21:02:25.990Z,100361.63
2023-05-15T21:04:55.557Z,100368.56
2023-05-15T21:07:24.909Z,100374.66
2023-05-15T21:09:54.172Z,100367.78
2023-05-15T21:12:23.434Z,100379.09
2023-05-15T21:14:54.599Z,100377.34
2023-05-15T21:17:24.026Z,100342.94
2023-05-15T21:19:58.323Z,100371.34
2023-05-15T21:22:36.580Z,100380.16
2023-05-15T21:25:06.474Z,100383.69
2023-05-15T21:27:36.051Z,100381.25
2023-05-15T21:30:08.918Z,100385.56
2023-05-15T21:32:38.691Z,100380.50
2023-05-15T21:35:08.678Z,100390.00
2023-05-15T21:37:44.543Z,100386.50
2023-05-15T21:40:18.960Z,100383.09
2023-05-15T21:42:48.421Z,100386.81
2023-05-15T21:45:20.229Z,100385.03
2023-05-15T21:47:49.719Z,100385.09
2023-05-15T21:50:24.029Z,100393.81
2023-05-15T21:52:53.620Z,100397.25
2023-05-15T21:55:22.962Z,100397.34
2023-05-15T22:00:39.990Z,100400.84
2023-05-15T22:03:09.635Z,100407.72
2023-05-15T22:05:38.991Z,100394.72
2023-05-15T22:08:08.390Z,100396.47
2023-05-15T22:10:37.686Z,100403.41
2023-05-15T22:13:07.136Z,100404.38
2023-05-15T22:15:36.503Z,100412.28
2023-05-15T22:18:08.266Z,100403.81
2023-05-15T22:20:37.633Z,100412.44
2023-05-15T22:23:06.972Z,100405.63
2023-05-15T22:25:41.394Z,100401.44
2023-05-15T22:28:23.399Z,100407.56
2023-05-15T22:30:52.920Z,100404.25
2023-05-15T22:33:24.673Z,100397.41
2023-05-15T22:35:54.692Z,100404.34
2023-05-15T22:38:24.120Z,100407.75
2023-05-15T22:41:01.604Z,100385.28
2023-05-15T22:43:31.228Z,100411.22
2023-05-15T22:46:00.382Z,100416.00
2023-05-15T22:48:32.270Z,100418.84
2023-05-15T22:51:02.136Z,100426.75
2023-05-15T22:53:31.390Z,100422.66
2023-05-15T22:56:12.121Z,100432.13
2023-05-15T22:58:41.552Z,100421.09
2023-05-15T23:01:11.329Z,100426.34
2023-05-15T23:03:42.895Z,100420.41
2023-05-15T23:06:12.385Z,100428.16
2023-05-15T23:08:41.558Z,100417.00
2023-05-15T23:11:11.337Z,100428.19
2023-05-15T23:13:40.742Z,100423.03
2023-05-15T23:16:10.128Z,100427.31
2023-05-15T23:18:41.640Z,100423.03
2023-05-15T23:21:11.138Z,100411.81
2023-05-15T23:23:40.412Z,100416.06
2023-05-15T23:26:14.716Z,100409.94
2023-05-15T23:28:44.212Z,100415.00
2023-05-15T23:31:15.231Z,100391.69
2023-05-15T23:33:48.856Z,100416.59
2023-05-15T23:36:28.370Z,100409.66
2023-05-15T23:38:57.770Z,100416.69
2023-05-15T23:41:27.990Z,100409.06
2023-05-15T23:44:02.820Z,100414.31
2023-05-15T23:46:31.984Z,100421.28
2023-05-15T23:49:08.990Z,100413.59
2023-05-15T23:51:37.914Z,100412.72
2023-05-15T23:54:10.630Z,100409.25
2023-05-15T23:56:39.978Z,100413.59
2023-05-15T23:59:14.835Z,100407.53
